createdAt,value
2022-07-26T00:02:01.880Z,99604.61
2022-07-26T00:04:34.118Z,99599.88
2022-07-26T00:07:06.027Z,99595.40
2022-07-26T00:09:49.050Z,99590.76
2022-07-26T00:12:20.703Z,99591.95
2022-07-26T00:14:54.306Z,99593.27
2022-07-26T00:17:23.372Z,99589.88
2022-07-26T00:19:52.609Z,99583.84
2022-07-26T00:22:39.115Z,99578.18
2022-07-26T00:25:11.111Z,99572.73
2022-07-26T00:27:42.087Z,99570.14
2022-07-26T00:30:14.526Z,99569.89
2022-07-26T00:32:48.086Z,99566.11
2022-07-26T00:35:18.362Z,99559.66
2022-07-26T00:37:50.417Z,99557.51
2022-07-26T00:40:19.666Z,99551.48
2022-07-26T00:42:54.570Z,99550.78
2022-07-26T00:45:25.011Z,99548.78
2022-07-26T00:47:56.087Z,99549.69
2022-07-26T00:50:33.513Z,99549.84
2022-07-26T00:53:05.744Z,99547.61
2022-07-26T00:55:38.432Z,99550.81
2022-07-26T00:58:13.619Z,99550.10
2022-07-26T01:01:03.330Z,99549.63
2022-07-26T01:03:41.906Z,99547.63
2022-07-26T01:06:17.934Z,99551.65
2022-07-26T01:09:07.191Z,99549.16
2022-07-26T01:11:44.427Z,99549.64
2022-07-26T01:14:22.230Z,99545.10
2022-07-26T01:17:00.769Z,99539.94
2022-07-26T01:19:31.123Z,99537.45
2022-07-26T01:22:12.536Z,99534.70
2022-07-26T01:24:49.508Z,99524.46
2022-07-26T01:27:18.985Z,99514.23
2022-07-26T01:29:52.537Z,99509.39
2022-07-26T01:32:24.342Z,99505.95
2022-07-26T01:34:54.514Z,99508.73
2022-07-26T01:37:28.549Z,99515.86
2022-07-26T01:40:08.112Z,99517.61
2022-07-26T01:42:41.169Z,99517.17
2022-07-26T01:45:13.233Z,99520.52
2022-07-26T01:47:52.757Z,99522.49
2022-07-26T01:50:34.530Z,99519.58
2022-07-26T01:53:13.674Z,99509.47
2022-07-26T01:55:45.859Z,99508.11
2022-07-26T01:58:27.227Z,99511.16
2022-07-26T02:01:01.083Z,99511.85
2022-07-26T02:03:30.440Z,99509.72
2022-07-26T02:06:08.744Z,99509.77
2022-07-26T02:08:37.993Z,99506.12
2022-07-26T02:11:11.456Z,99510.85
2022-07-26T02:13:48.796Z,99513.22
2022-07-26T02:16:27.561Z,99508.55
2022-07-26T02:19:01.758Z,99506.35
2022-07-26T02:21:42.381Z,99510.12
2022-07-26T02:24:16.295Z,99509.06
2022-07-26T02:26:50.826Z,99508.20
2022-07-26T02:29:20.063Z,99509.39
2022-07-26T02:31:52.257Z,99511.05
2022-07-26T02:34:24.392Z,99510.55
2022-07-26T02:36:53.701Z,99506.54
2022-07-26T02:39:30.191Z,99502.56
2022-07-26T02:42:10.662Z,99503.97
2022-07-26T02:44:43.129Z,99500.65
2022-07-26T02:47:21.118Z,99506.80
2022-07-26T02:49:50.299Z,99509.75
2022-07-26T02:52:21.947Z,99519.00
2022-07-26T02:54:53.224Z,99531.17
2022-07-26T02:57:30.974Z,99539.63
2022-07-26T03:00:23.566Z,99538.36
2022-07-26T03:02:53.604Z,99533.30
2022-07-26T03:05:25.701Z,99536.30
2022-07-26T03:07:56.961Z,99539.36
2022-07-26T03:10:28.001Z,99552.16
2022-07-26T03:13:05.681Z,99575.61
2022-07-26T03:15:42.673Z,99589.54
2022-07-26T03:18:15.295Z,99585.61
2022-07-26T03:20:50.971Z,99586.75
2022-07-26T03:23:22.859Z,99595.41
2022-07-26T03:26:03.921Z,99598.95
2022-07-26T03:28:36.143Z,99595.75
2022-07-26T03:31:05.646Z,99596.11
2022-07-26T03:33:42.221Z,99603.59
2022-07-26T03:36:15.570Z,99601.55
2022-07-26T03:38:45.004Z,99594.60
2022-07-26T03:41:15.254Z,99580.54
2022-07-26T03:43:44.186Z,99576.05
2022-07-26T03:46:14.646Z,99578.48
2022-07-26T03:48:47.924Z,99587.88
2022-07-26T03:51:17.078Z,99589.92
2022-07-26T03:53:46.207Z,99590.38
2022-07-26T03:56:32.151Z,99592.94
2022-07-26T03:59:05.888Z,99584.73
2022-07-26T04:01:42.078Z,99575.04
2022-07-26T04:04:14.753Z,99570.81
2022-07-26T04:06:48.146Z,99580.32
2022-07-26T04:09:39.206Z,99590.45
2022-07-26T04:12:11.565Z,99594.16
2022-07-26T04:14:45.104Z,99597.96
2022-07-26T04:17:17.606Z,99592.98
2022-07-26T04:19:49.170Z,99579.04
2022-07-26T04:22:24.181Z,99571.70
2022-07-26T04:24:54.439Z,99571.58
2022-07-26T04:27:23.411Z,99580.94
2022-07-26T04:29:55.004Z,99589.04
2022-07-26T04:32:24.172Z,99591.33
2022-07-26T04:34:55.466Z,99590.69
2022-07-26T04:37:40.647Z,99589.48
2022-07-26T04:40:15.781Z,99604.73
2022-07-26T04:42:51.507Z,99610.48
2022-07-26T04:45:32.505Z,99612.88
2022-07-26T04:48:06.747Z,99615.89
2022-07-26T04:50:46.399Z,99634.63
2022-07-26T04:53:34.632Z,99652.35
2022-07-26T04:56:31.569Z,99666.11
2022-07-26T04:59:32.535Z,99649.92
2022-07-26T05:02:11.647Z,99640.39
2022-07-26T05:06:23.436Z,99643.56
2022-07-26T05:10:56.161Z,99625.92
2022-07-26T05:13:31.122Z,99636.91
2022-07-26T05:16:11.869Z,99662.80
2022-07-26T05:18:45.623Z,99672.02
2022-07-26T05:21:19.082Z,99673.57
2022-07-26T05:23:48.020Z,99674.66
2022-07-26T05:26:16.890Z,99674.50
2022-07-26T05:28:45.764Z,99671.42
2022-07-26T05:31:14.836Z,99680.59
2022-07-26T05:33:45.060Z,99693.35
2022-07-26T05:36:14.115Z,99694.41
2022-07-26T05:38:43.332Z,99688.08
2022-07-26T05:41:13.256Z,99693.65
2022-07-26T05:43:44.093Z,99691.23
2022-07-26T05:46:13.190Z,99685.79
2022-07-26T05:48:43.151Z,99692.18
2022-07-26T05:51:12.786Z,99699.82
2022-07-26T05:53:41.892Z,99702.01
2022-07-26T05:56:10.869Z,99712.53
2022-07-26T05:58:39.856Z,99715.48
2022-07-26T06:01:08.990Z,99719.90
2022-07-26T06:03:38.549Z,99726.39
2022-07-26T06:06:08.263Z,99738.88
2022-07-26T06:08:37.471Z,99745.68
2022-07-26T06:11:15.825Z,99758.20
2022-07-26T06:13:56.579Z,99763.70
2022-07-26T06:16:25.965Z,99760.88
2022-07-26T06:19:00.973Z,99760.51
2022-07-26T06:21:29.925Z,99761.52
2022-07-26T06:23:58.854Z,99770.90
2022-07-26T06:26:27.928Z,99785.06
2022-07-26T06:28:56.971Z,99793.92
2022-07-26T06:31:29.803Z,99800.23
2022-07-26T06:34:03.420Z,99803.70
2022-07-26T06:36:32.446Z,99800.15
2022-07-26T06:39:01.560Z,99791.67
2022-07-26T06:41:30.710Z,99791.70
2022-07-26T06:44:04.009Z,99790.88
2022-07-26T06:46:36.465Z,99791.63
2022-07-26T06:49:05.988Z,99794.67
2022-07-26T06:51:40.424Z,99800.15
2022-07-26T06:54:12.279Z,99807.08
2022-07-26T06:56:41.318Z,99805.75
2022-07-26T06:59:10.458Z,99808.89
2022-07-26T07:01:59.443Z,99816.04
2022-07-26T07:04:35.184Z,99817.48
2022-07-26T07:07:08.905Z,99817.66
2022-07-26T07:09:57.090Z,99811.64
2022-07-26T07:12:41.510Z,99810.46
2022-07-26T07:15:14.430Z,99814.86
2022-07-26T07:17:55.442Z,99820.80
2022-07-26T07:20:35.516Z,99822.78
2022-07-26T07:23:12.256Z,99825.00
2022-07-26T07:25:47.413Z,99833.10
2022-07-26T07:28:23.662Z,99841.82
2022-07-26T07:30:53.032Z,99853.23
2022-07-26T07:33:23.319Z,99858.85
2022-07-26T07:35:56.029Z,99861.61
2022-07-26T07:38:25.082Z,99860.61
2022-07-26T07:40:55.225Z,99866.86
2022-07-26T07:43:25.546Z,99871.20
2022-07-26T07:45:57.510Z,99875.88
2022-07-26T07:48:26.738Z,99876.58
2022-07-26T07:50:56.004Z,99873.85
2022-07-26T07:53:25.014Z,99874.30
2022-07-26T07:55:55.466Z,99876.09
2022-07-26T07:58:24.620Z,99883.11
2022-07-26T08:00:57.273Z,99890.84
2022-07-26T08:03:38.967Z,99890.52
2022-07-26T08:06:10.871Z,99891.02
2022-07-26T08:08:39.736Z,99894.23
2022-07-26T08:11:11.201Z,99900.91
2022-07-26T08:13:47.289Z,99911.81
2022-07-26T08:16:16.932Z,99921.17
2022-07-26T08:18:58.047Z,99927.63
2022-07-26T08:21:33.498Z,99932.64
2022-07-26T08:24:03.688Z,99938.98
2022-07-26T08:26:32.520Z,99944.28
2022-07-26T08:29:06.463Z,99949.54
2022-07-26T08:31:35.566Z,99956.25
2022-07-26T08:34:04.694Z,99963.64
2022-07-26T08:36:33.597Z,99971.89
2022-07-26T08:39:02.489Z,99969.65
2022-07-26T08:41:34.102Z,99969.35
2022-07-26T08:44:11.343Z,99972.78
2022-07-26T08:46:42.759Z,99978.73
2022-07-26T08:49:14.482Z,99982.94
2022-07-26T08:51:44.652Z,99988.20
2022-07-26T08:54:16.244Z,99992.81
2022-07-26T08:56:53.318Z,99997.05
2022-07-26T08:59:24.745Z,100003.13
2022-07-26T09:02:05.189Z,100003.50
2022-07-26T09:04:43.681Z,100012.65
2022-07-26T09:07:19.109Z,100018.34
2022-07-26T09:10:11.966Z,100022.60
2022-07-26T09:12:47.692Z,100024.81
2022-07-26T09:15:25.381Z,100025.31
2022-07-26T09:17:58.261Z,100025.86
2022-07-26T09:20:30.553Z,100029.63
2022-07-26T09:23:16.711Z,100037.02
2022-07-26T09:25:56.524Z,100043.63
2022-07-26T09:28:33.011Z,100042.67
2022-07-26T09:31:07.966Z,100050.16
2022-07-26T09:33:48.732Z,100049.48
2022-07-26T09:36:30.320Z,100051.17
2022-07-26T09:39:05.087Z,100049.98
2022-07-26T09:41:40.610Z,100050.70
2022-07-26T09:44:27.831Z,100051.55
2022-07-26T09:47:00.524Z,100049.03
2022-07-26T09:49:32.830Z,100050.25
2022-07-26T09:52:22.077Z,100052.35
2022-07-26T09:54:53.773Z,100055.27
2022-07-26T09:57:25.458Z,100053.27
2022-07-26T10:00:00.173Z,100051.31
2022-07-26T10:02:42.928Z,100054.19
2022-07-26T10:05:17.964Z,100053.52
2022-07-26T10:08:00.577Z,100053.77
2022-07-26T10:10:59.962Z,100059.56
2022-07-26T10:13:33.579Z,100058.06
2022-07-26T10:16:28.802Z,100057.10
2022-07-26T10:19:04.640Z,100063.63
2022-07-26T10:21:41.986Z,100064.28
2022-07-26T10:24:33.809Z,100064.40
2022-07-26T10:27:42.296Z,100065.31
2022-07-26T10:30:27.667Z,100067.14
2022-07-26T10:33:06.569Z,100072.10
2022-07-26T10:35:45.912Z,100073.83
2022-07-26T10:38:30.030Z,100081.95
2022-07-26T10:41:16.707Z,100083.64
2022-07-26T10:44:15.731Z,100083.27
2022-07-26T10:47:03.216Z,100088.06
2022-07-26T10:49:57.325Z,100091.38
2022-07-26T10:52:31.453Z,100090.67
2022-07-26T10:55:08.000Z,100091.86
2022-07-26T10:57:44.806Z,100089.81
2022-07-26T11:00:30.654Z,100094.67
2022-07-26T11:03:01.069Z,100093.13
2022-07-26T11:05:38.802Z,100089.00
2022-07-26T11:08:09.434Z,100090.14
2022-07-26T11:10:50.087Z,100091.27
2022-07-26T11:13:24.338Z,100094.14
2022-07-26T11:16:09.297Z,100092.10
2022-07-26T11:18:43.760Z,100094.80
2022-07-26T11:21:16.817Z,100094.50
2022-07-26T11:23:51.461Z,100089.01
2022-07-26T11:26:45.791Z,100089.54
2022-07-26T11:29:41.008Z,100088.86
2022-07-26T11:32:23.458Z,100084.70
2022-07-26T11:35:01.512Z,100080.16
2022-07-26T11:38:07.857Z,100080.07
2022-07-26T11:40:48.489Z,100085.26
2022-07-26T11:43:21.820Z,100085.74
2022-07-26T11:45:55.524Z,100087.79
2022-07-26T11:48:28.486Z,100086.05
2022-07-26T11:51:43.936Z,100085.02
2022-07-26T11:54:14.700Z,100085.02
2022-07-26T11:57:02.695Z,100081.73
2022-07-26T11:59:37.818Z,100085.23
2022-07-26T12:02:09.469Z,100086.62
2022-07-26T12:04:43.855Z,100082.77
2022-07-26T12:07:21.612Z,100078.98
2022-07-26T12:09:53.504Z,100080.24
2022-07-26T12:12:32.045Z,100082.71
2022-07-26T12:15:07.203Z,100085.09
2022-07-26T12:17:36.283Z,100084.43
2022-07-26T12:20:17.948Z,100081.77
2022-07-26T12:23:05.083Z,100077.61
2022-07-26T12:25:37.510Z,100074.23
2022-07-26T12:28:14.305Z,100075.09
2022-07-26T12:30:45.910Z,100071.63
2022-07-26T12:33:17.428Z,100069.66
2022-07-26T12:35:47.049Z,100067.52
2022-07-26T12:38:16.078Z,100065.30
2022-07-26T12:40:45.049Z,100060.18
2022-07-26T12:43:13.958Z,100062.83
2022-07-26T12:45:43.669Z,100060.61
2022-07-26T12:48:12.828Z,100057.59
2022-07-26T12:50:43.854Z,100058.02
2022-07-26T12:53:13.191Z,100054.67
2022-07-26T12:55:42.089Z,100060.27
2022-07-26T12:58:11.165Z,100058.70
2022-07-26T13:00:41.345Z,100056.92
2022-07-26T13:03:10.522Z,100055.19
2022-07-26T13:05:39.525Z,100054.98
2022-07-26T13:08:08.382Z,100053.08
2022-07-26T13:10:43.847Z,100050.30
2022-07-26T13:13:14.569Z,100054.40
2022-07-26T13:15:48.033Z,100055.74
2022-07-26T13:18:18.670Z,100055.30
2022-07-26T13:20:52.670Z,100056.38
2022-07-26T13:23:26.926Z,100050.60
2022-07-26T13:25:57.440Z,100051.67
2022-07-26T13:28:26.950Z,100052.17
2022-07-26T13:31:00.409Z,100051.96
2022-07-26T13:33:32.792Z,100052.35
2022-07-26T13:36:01.979Z,100055.85
2022-07-26T13:38:33.787Z,100056.91
2022-07-26T13:41:05.159Z,100054.05
2022-07-26T13:43:35.505Z,100053.94
2022-07-26T13:46:04.662Z,100054.91
2022-07-26T13:48:33.727Z,100052.21
2022-07-26T13:51:04.176Z,100050.58
2022-07-26T13:53:36.537Z,100051.19
2022-07-26T13:56:26.936Z,100050.98
2022-07-26T13:58:55.868Z,100049.41
2022-07-26T14:01:43.310Z,100048.02
2022-07-26T14:04:15.615Z,100046.65
2022-07-26T14:06:46.168Z,100048.33
2022-07-26T14:09:17.942Z,100049.19
2022-07-26T14:11:47.292Z,100049.46
2022-07-26T14:14:17.292Z,100049.85
2022-07-26T14:16:49.294Z,100048.89
2022-07-26T14:19:19.037Z,100051.22
2022-07-26T14:21:58.990Z,100047.83
2022-07-26T14:24:32.492Z,100045.71
2022-07-26T14:27:03.611Z,100043.67
2022-07-26T14:29:32.847Z,100042.55
2022-07-26T14:32:09.568Z,100048.61
2022-07-26T14:34:41.718Z,100048.62
2022-07-26T14:37:41.430Z,100046.02
2022-07-26T14:40:00.037Z,100043.65
2022-07-26T14:42:29.161Z,100040.84
2022-07-26T14:44:58.063Z,100046.14
2022-07-26T14:47:26.998Z,100040.94
2022-07-26T14:49:55.879Z,100041.96
2022-07-26T14:52:24.835Z,100041.11
2022-07-26T14:54:53.687Z,100036.52
2022-07-26T14:57:22.582Z,100039.27
2022-07-26T14:59:51.553Z,100036.23
2022-07-26T15:02:20.968Z,100034.27
2022-07-26T15:04:49.779Z,100037.59
2022-07-26T15:07:18.669Z,100034.35
2022-07-26T15:09:47.617Z,100034.45
2022-07-26T15:12:16.651Z,100033.09
2022-07-26T15:14:46.483Z,100038.23
2022-07-26T15:17:18.298Z,100040.91
2022-07-26T15:19:47.280Z,100035.98
2022-07-26T15:22:16.357Z,100032.97
2022-07-26T15:24:45.640Z,100032.20
2022-07-26T15:27:17.755Z,100034.04
2022-07-26T15:29:48.800Z,100032.54
2022-07-26T15:32:17.876Z,100030.48
2022-07-26T15:34:46.873Z,100030.86
2022-07-26T15:37:15.792Z,100028.80
2022-07-26T15:39:45.078Z,100031.12
2022-07-26T15:42:16.034Z,100030.89
2022-07-26T15:44:45.013Z,100029.60
2022-07-26T15:47:15.591Z,100026.94
2022-07-26T15:50:00.838Z,100026.13
2022-07-26T15:52:29.902Z,100020.39
2022-07-26T15:55:01.414Z,100018.38
2022-07-26T15:57:30.298Z,100015.80
2022-07-26T16:00:03.688Z,100013.53
2022-07-26T16:02:41.047Z,100009.02
2022-07-26T16:05:11.686Z,100007.71
2022-07-26T16:07:41.974Z,100009.21
2022-07-26T16:10:13.651Z,100006.02
2022-07-26T16:12:43.222Z,100007.38
2022-07-26T16:15:12.950Z,100011.22
2022-07-26T16:17:42.261Z,100011.45
2022-07-26T16:20:11.909Z,100010.91
2022-07-26T16:22:44.070Z,100012.98
2022-07-26T16:25:28.166Z,100015.05
2022-07-26T16:27:59.857Z,100014.13
2022-07-26T16:30:31.650Z,100013.16
2022-07-26T16:33:00.903Z,100017.00
2022-07-26T16:35:30.310Z,100019.77
2022-07-26T16:38:00.107Z,100017.23
2022-07-26T16:40:29.275Z,100020.14
2022-07-26T16:42:58.195Z,100019.16
2022-07-26T16:45:27.422Z,100019.59
2022-07-26T16:47:59.916Z,100022.03
2022-07-26T16:50:29.304Z,100018.84
2022-07-26T16:52:58.335Z,100016.25
2022-07-26T16:55:27.571Z,100012.90
2022-07-26T16:57:59.242Z,100018.56
2022-07-26T17:00:37.738Z,100018.61
2022-07-26T17:03:09.253Z,100016.02
2022-07-26T17:05:38.575Z,100019.75
2022-07-26T17:08:08.470Z,100016.55
2022-07-26T17:10:40.818Z,100019.39
2022-07-26T17:13:15.722Z,100020.62
2022-07-26T17:15:44.987Z,100019.20
2022-07-26T17:18:14.409Z,100022.42
2022-07-26T17:20:49.622Z,100022.15
2022-07-26T17:23:18.852Z,100025.44
2022-07-26T17:25:48.358Z,100021.79
2022-07-26T17:28:20.338Z,100023.39
2022-07-26T17:30:51.295Z,100028.52
2022-07-26T17:33:26.916Z,100031.60
2022-07-26T17:36:03.419Z,100031.27
2022-07-26T17:38:36.106Z,100030.77
2022-07-26T17:41:05.102Z,100029.76
2022-07-26T17:43:36.671Z,100028.31
2022-07-26T17:46:09.516Z,100031.43
2022-07-26T17:48:39.755Z,100035.70
2022-07-26T17:51:11.874Z,100033.20
2022-07-26T17:53:53.354Z,100036.39
2022-07-26T17:56:28.848Z,100036.98
2022-07-26T17:58:59.591Z,100039.17
2022-07-26T18:01:28.671Z,100041.23
2022-07-26T18:03:57.997Z,100041.70
2022-07-26T18:06:33.221Z,100042.23
2022-07-26T18:09:04.501Z,100041.64
2022-07-26T18:11:40.805Z,100043.25
2022-07-26T18:14:12.023Z,100045.06
2022-07-26T18:16:53.914Z,100047.59
2022-07-26T18:19:32.528Z,100046.95
2022-07-26T18:22:05.911Z,100048.30
2022-07-26T18:24:37.846Z,100049.25
2022-07-26T18:27:08.528Z,100049.39
2022-07-26T18:29:39.741Z,100047.94
2022-07-26T18:32:10.296Z,100046.94
2022-07-26T18:34:39.322Z,100048.79
2022-07-26T18:37:08.252Z,100049.18
2022-07-26T18:39:38.037Z,100052.06
2022-07-26T18:42:09.263Z,100053.09
2022-07-26T18:44:38.669Z,100056.84
2022-07-26T18:47:08.163Z,100056.84
2022-07-26T18:49:38.307Z,100062.60
2022-07-26T18:52:09.613Z,100065.42
2022-07-26T18:54:43.018Z,100062.31
2022-07-26T18:57:13.352Z,100061.30
2022-07-26T18:59:49.257Z,100062.16
2022-07-26T19:02:25.560Z,100066.46
2022-07-26T19:05:05.322Z,100068.58
2022-07-26T19:07:38.869Z,100070.80
2022-07-26T19:10:12.429Z,100081.70
2022-07-26T19:12:42.532Z,100092.25
2022-07-26T19:15:21.756Z,100098.54
2022-07-26T19:17:53.544Z,100102.56
2022-07-26T19:20:34.827Z,100108.17
2022-07-26T19:23:06.452Z,100108.51
2022-07-26T19:25:45.702Z,100116.81
2022-07-26T19:28:24.997Z,100118.23
2022-07-26T19:30:54.395Z,100120.02
2022-07-26T19:33:23.644Z,100120.17
2022-07-26T19:35:55.368Z,100119.60
2022-07-26T19:38:35.780Z,100119.66
2022-07-26T19:41:08.293Z,100117.90
2022-07-26T19:43:39.563Z,100116.88
2022-07-26T19:46:08.595Z,100116.30
2022-07-26T19:48:37.550Z,100119.77
2022-07-26T19:51:06.417Z,100124.48
2022-07-26T19:53:35.349Z,100126.59
2022-07-26T19:56:07.937Z,100128.48
2022-07-26T19:58:36.929Z,100128.31
2022-07-26T20:01:05.999Z,100133.43
2022-07-26T20:03:35.134Z,100137.20
2022-07-26T20:06:04.202Z,100141.18
2022-07-26T20:08:36.616Z,100139.58
2022-07-26T20:11:19.630Z,100138.38
2022-07-26T20:14:03.871Z,100140.79
2022-07-26T20:16:36.642Z,100140.16
2022-07-26T20:19:06.226Z,100143.04
2022-07-26T20:21:37.566Z,100145.06
2022-07-26T20:24:07.071Z,100148.64
2022-07-26T20:26:37.665Z,100151.86
2022-07-26T20:29:11.711Z,100151.23
2022-07-26T20:31:45.909Z,100149.55
2022-07-26T20:34:18.179Z,100150.60
2022-07-26T20:36:47.653Z,100151.64
2022-07-26T20:39:16.656Z,100148.21
2022-07-26T20:41:45.810Z,100151.78
2022-07-26T20:44:20.895Z,100149.30
2022-07-26T20:46:53.479Z,100154.52
2022-07-26T20:49:22.599Z,100158.09
2022-07-26T20:51:51.748Z,100160.27
2022-07-26T20:54:20.908Z,100165.02
2022-07-26T20:56:49.999Z,100170.28
2022-07-26T20:59:19.468Z,100173.27
2022-07-26T21:01:48.489Z,100172.96
2022-07-26T21:04:17.794Z,100172.16
2022-07-26T21:06:47.264Z,100177.84
2022-07-26T21:09:18.609Z,100182.17
2022-07-26T21:11:51.235Z,100183.00
2022-07-26T21:14:22.723Z,100186.33
2022-07-26T21:16:52.075Z,100186.42
2022-07-26T21:19:23.110Z,100188.02
2022-07-26T21:21:54.785Z,100193.31
2022-07-26T21:24:26.770Z,100194.31
2022-07-26T21:26:58.074Z,100196.64
2022-07-26T21:29:31.753Z,100195.80
2022-07-26T21:32:22.099Z,100195.93
2022-07-26T21:34:59.390Z,100198.66
2022-07-26T21:37:29.650Z,100206.02
2022-07-26T21:40:00.744Z,100210.95
2022-07-26T21:42:31.552Z,100213.46
2022-07-26T21:45:00.652Z,100211.71
2022-07-26T21:47:40.393Z,100211.86
2022-07-26T21:50:15.674Z,100217.27
2022-07-26T21:52:44.665Z,100217.63
2022-07-26T21:55:17.752Z,100218.09
2022-07-26T21:57:48.292Z,100215.61
2022-07-26T22:00:17.890Z,100216.31
2022-07-26T22:02:46.833Z,100219.45
2022-07-26T22:05:34.318Z,100221.35
2022-07-26T22:08:09.089Z,100226.71
2022-07-26T22:10:44.081Z,100228.37
2022-07-26T22:13:14.962Z,100230.96
2022-07-26T22:15:44.429Z,100233.95
2022-07-26T22:18:14.304Z,100239.14
2022-07-26T22:20:44.271Z,100241.11
2022-07-26T22:23:13.480Z,100241.74
2022-07-26T22:26:04.469Z,100238.23
2022-07-26T22:28:37.106Z,100242.29
2022-07-26T22:31:08.449Z,100242.18
2022-07-26T22:33:37.636Z,100239.83
2022-07-26T22:36:06.559Z,100242.67
2022-07-26T22:38:35.466Z,100240.64
2022-07-26T22:41:04.300Z,100242.78
2022-07-26T22:43:34.347Z,100246.16
2022-07-26T22:46:05.084Z,100249.19
2022-07-26T22:48:38.132Z,100250.88
2022-07-26T22:51:07.567Z,100254.56
2022-07-26T22:53:40.825Z,100258.40
2022-07-26T22:56:09.621Z,100262.20
2022-07-26T22:58:40.918Z,100265.09
2022-07-26T23:01:09.980Z,100261.54
2022-07-26T23:03:38.971Z,100262.44
2022-07-26T23:06:25.162Z,100263.61
2022-07-26T23:08:59.401Z,100264.90
2022-07-26T23:11:28.313Z,100265.02
2022-07-26T23:14:01.206Z,100272.44
2022-07-26T23:16:30.294Z,100273.48
2022-07-26T23:18:59.303Z,100274.68
2022-07-26T23:21:28.156Z,100275.96
2022-07-26T23:23:57.024Z,100277.77
2022-07-26T23:26:25.914Z,100281.77
2022-07-26T23:28:54.895Z,100283.40
2022-07-26T23:31:23.955Z,100287.27
2022-07-26T23:33:54.644Z,100288.68
2022-07-26T23:36:26.804Z,100290.81
2022-07-26T23:38:58.636Z,100290.27
2022-07-26T23:41:28.473Z,100290.57
2022-07-26T23:43:58.013Z,100292.04
2022-07-26T23:46:27.610Z,100297.98
2022-07-26T23:49:03.555Z,100300.67
2022-07-26T23:51:32.551Z,100302.39
2022-07-26T23:54:03.815Z,100297.84
2022-07-26T23:56:32.727Z,100298.48
2022-07-26T23:59:01.760Z,100295.58
